Airfield :
LOGIN :

Register | Disclaimer

   EN    FR    IT 

 










Legend :    VFR   Marginal VFR   IFR   Intensive IFR   Very Intensive IFR
Visi :
Ceiling :
>= 8 km
>= 3000ft
5 to 8 km
1000 to 3000 ft
1500m to 5 km
500 to 1000 ft
800 to 1500m
200 to 500 ft
< 800m
< 200 ft
Symbols :   Thunderstorms  Fog  Heavy snow  Heavy precipitations  Wind > 20 kt
SIGMETs :     Misc.  Thunderstorms  Icing  Turbulence  Mountain Waves  Volcanic Ashes







- Airport Elevation : 302 ft
- IATA code : CGN


EDDK - Cologne Bonn

CURRENT METAR :
  • 201220Z 32011KT 290V350 9000 BKN012 14/11 Q1008 NOSIG

EXPIRED METARs :
  • 201150Z 32010KT 9000 BKN010 14/11 Q1008 BECMG BKN013
  • 201120Z 32010KT 9000 BKN008 14/12 Q1007 BECMG BKN013
  • 201050Z 31010KT 8000 FEW008 BKN011 14/12 Q1007 BECMG BKN015
  • 201020Z 31009KT 8000 FEW007 SCT009 BKN012 14/12 Q1007 BECMG BKN015
  • 200950Z 32012KT 7000 FEW006 BKN008 13/12 Q1007 BECMG BKN012

TAF TAF EDDK
Valid from the 20 at 12:00 until the 21 at 18:00 UTC


201100Z 2012/2118 31011KT 9000 BKN009
BECMG 2012/2015 SCT015 BKN020
PROB30
TEMPO 2016/2019 TSRA BKN015CB
BECMG 2021/2024 BKN007
TEMPO 2103/2110 3000 -RA BR BKN004
BECMG 2110/2113 BKN012
TEMPO 2110/2114 30015G25KT
TEMPO 2113/2118 BKN015
No reported NOTAMs for that airfield.
1 SIGMET reported for the Langen FIR (EDGG) :
 
Embedded thunderstorms
EDGG SIGMET 1 VALID 201121/201300 EDZF
EDGG LANGEN FIR EMBD TS FCST WI N4846 E00850 - N4835 E00931 - N4759 E00929 - N4818 E00803 - N4846 E00850 TOP FL300 MOV S NC=



MET'MAP, your aeronautical weather chart ! - Copyright ORBIFLY December 2007 - Disclaimer

ORBIFLY MET'MAP TEAM :

Programming & Development : Alexandra Zaïnal
Concept & Development : Baudouin d'Aumeries
Co-Development & Prog : Marc-Olivier Méhu
Technical & hardware support : Manuel Goepfert

Contact : metmap@orbifly.com




SOURCES & CREDITS :

   NOAA